Mobile, AL

7:41 PM CDT on October 22, 2014 (GMT -0500)
Mobile Regional | Change Station
CLOSE
Current Station
Airport
Location: Mobile,
Elevation: 220 ft
Nearby Weather Stations

Elev 220 ft 30.69 °N, 88.25 °W | Updated 45 minutes ago

Clear
Clear
65 °F
Feels Like 65 °F
N
6
Wind Variable Wind from North

Today
High -- | Low -- °F
--% Chance of Precip.
Yesterday
High -- | Low -- °F
Precip. -- in
7:00 AM 6:14 PM
Waning Crescent, 1% visible
Pressure 30.06 in
Visibility 10.0 miles
Clouds Few 20000 ft
Dew Point 51 °F
Humidity 61%
Rainfall 0.00 in
Snow Depth Not available.
UV 0 out of 12
Pollen 3.10 out of 12
Air Quality Not available.
Flu Activity Sporadic
METAR KMOB 222356Z 35005KT 10SM FEW200 18/11 A3006 RMK AO2 SLP177 T01830106 10250 20183 53009

More Conditions Fewer Conditions

Pressure 30.06 in
Visibility 10.0 miles
Clouds Few 20000 ft
Dew Point 51 °F
Humidity 61%
Rainfall 0.00 in
Snow Depth Not available.
UV 0 out of 12
Pollen 3.10 out of 12
Air Quality Not available.
Flu Activity Sporadic
METAR KMOB 222356Z 35005KT 10SM FEW200 18/11 A3006 RMK AO2 SLP177 T01830106 10250 20183 53009

More Conditions Fewer Conditions

10-Day Weather Forecast

Almanac

Astronomy

Oct. 22, 2014 Rise Set
Actual Time 7:00 AM CDT 6:14 PM CDT
Civil Twilight 6:35 AM CDT 6:38 PM CDT
Nautical Twilight 6:07 AM CDT 7:06 PM CDT
Astronomical Twilight 5:39 AM CDT 7:34 PM CDT
Moon 5:46 AM CDT (10/22) 5:37 PM CDT (10/22)
Length of Visible Light 12h 02m
Length of Day
11h 13m
Tomorrow will be 1m 44s shorter.
Waning Crescent, 1% of the Moon is Illuminated
Today
Waning Crescent
Oct 23
New
Oct 30
First Quarter
Nov 6
Full
Nov 14
Last Quarter

Today's Extremes

State Highs State Lows

Community

WunderPhotos

Upload Photos

1,764,098 photos uploaded!

WunderBlogs® & News

Nearby

Air Quality

  Air Quality AQ Index Pollutant
Yesterday Good
OZONE

Snow Depth

Station Depth Elevation
No new snow has been reported.

Earthquake Activity

City Distance Mag. Time & Date
No recent earthquake activity has been reported nearby.
Minimum magnitude displayed is 2.5.

Coastal Water Temperatures

Place Temperature
Mobile State Docks, AL 75.0 °F
Coast Guard Sector Mobile, AL 75.0 °F

Nearby Weather Stations